createdAt,value
2023-03-01T00:00:29.159Z,-2.05
2023-03-01T00:03:02.225Z,-2.50
2023-03-01T00:05:36.287Z,-2.20
2023-03-01T00:08:10.593Z,-2.20
2023-03-01T00:10:43.533Z,-2.31
2023-03-01T00:13:16.525Z,-1.97
2023-03-01T00:15:49.920Z,-1.90
2023-03-01T00:18:23.546Z,-1.83
2023-03-01T00:20:58.404Z,-1.90
2023-03-01T00:23:32.953Z,-2.07
2023-03-01T00:26:09.165Z,-2.33
2023-03-01T00:28:43.590Z,-2.01
2023-03-01T00:31:19.317Z,-1.91
2023-03-01T00:33:58.389Z,-1.83
2023-03-01T00:36:34.312Z,-1.73
2023-03-01T00:39:13.944Z,-1.67
2023-03-01T00:41:47.012Z,-1.79
2023-03-01T00:44:20.090Z,-2.21
2023-03-01T00:46:53.040Z,-2.34
2023-03-01T00:49:28.625Z,-2.67
2023-03-01T00:52:02.877Z,-2.13
2023-03-01T00:54:37.043Z,-1.98
2023-03-01T00:57:09.909Z,-1.72
2023-03-01T00:59:42.733Z,-1.62
2023-03-01T01:02:15.791Z,-1.80
2023-03-01T01:04:49.815Z,-1.66
2023-03-01T01:07:22.672Z,-1.69
2023-03-01T01:09:57.086Z,-1.65
2023-03-01T01:12:30.365Z,-1.88
2023-03-01T01:15:03.552Z,-2.12
2023-03-01T01:17:36.396Z,-2.25
2023-03-01T01:20:10.783Z,-2.23
2023-03-01T01:22:43.633Z,-2.40
2023-03-01T01:25:19.936Z,-2.16
2023-03-01T01:27:52.892Z,-2.17
2023-03-01T01:30:25.902Z,-2.66
2023-03-01T01:32:58.993Z,-2.53
2023-03-01T01:35:32.212Z,-2.34
2023-03-01T01:38:05.110Z,-3.03
2023-03-01T01:40:45.684Z,-2.41
2023-03-01T01:43:24.877Z,-2.49
2023-03-01T01:46:01.169Z,-2.26
2023-03-01T01:48:42.413Z,-2.79
2023-03-01T01:51:20.072Z,-2.42
2023-03-01T01:53:58.133Z,-2.30
2023-03-01T01:56:32.881Z,-2.38
2023-03-01T01:59:06.290Z,-2.45
2023-03-01T02:01:39.117Z,-3.41
2023-03-01T02:04:12.538Z,-3.04
2023-03-01T02:06:52.106Z,-2.87
2023-03-01T02:09:25.970Z,-3.25
2023-03-01T02:12:01.228Z,-2.87
2023-03-01T02:14:34.079Z,-2.66
2023-03-01T02:17:07.221Z,-2.63
2023-03-01T02:19:55.803Z,-2.69
2023-03-01T02:22:32.525Z,-2.53
2023-03-01T02:25:15.115Z,-2.70
2023-03-01T02:27:58.365Z,-2.96
2023-03-01T02:30:34.306Z,-3.39
2023-03-01T02:33:06.348Z,-2.89
2023-03-01T02:35:41.121Z,-2.79
2023-03-01T02:38:14.100Z,-2.87
2023-03-01T02:40:49.071Z,-3.40
2023-03-01T02:43:25.162Z,-3.26
2023-03-01T02:46:05.404Z,-3.30
2023-03-01T02:48:45.092Z,-3.48
2023-03-01T02:51:42.632Z,-4.07
2023-03-01T02:54:26.070Z,-3.89
2023-03-01T02:56:59.797Z,-3.42
2023-03-01T02:59:40.363Z,-3.84
2023-03-01T03:02:37.184Z,-3.14
2023-03-01T03:05:37.165Z,-3.38
2023-03-01T03:08:10.562Z,-3.16
2023-03-01T03:10:44.946Z,-3.16
2023-03-01T03:13:18.167Z,-2.89
2023-03-01T03:15:51.489Z,-3.01
2023-03-01T03:18:27.722Z,-3.13
2023-03-01T03:21:00.909Z,-3.21
2023-03-01T03:23:33.995Z,-2.93
2023-03-01T03:26:07.843Z,-3.30
2023-03-01T03:28:41.042Z,-3.83
2023-03-01T03:31:14.000Z,-3.49
2023-03-01T03:33:48.198Z,-3.11
2023-03-01T03:36:25.826Z,-2.84
2023-03-01T03:38:59.090Z,-3.05
2023-03-01T03:41:32.034Z,-2.97
2023-03-01T03:44:04.965Z,-3.08
2023-03-01T03:46:37.983Z,-2.99
2023-03-01T03:49:12.277Z,-3.72
2023-03-01T03:51:47.334Z,-3.24
2023-03-01T03:54:20.221Z,-3.63
2023-03-01T03:56:53.442Z,-3.96
2023-03-01T03:59:26.518Z,-4.45
2023-03-01T04:01:59.428Z,-4.18
2023-03-01T04:04:34.700Z,-4.55
2023-03-01T04:07:07.694Z,-3.77
2023-03-01T04:09:40.584Z,-3.47
2023-03-01T04:12:13.416Z,-3.39
2023-03-01T04:14:47.978Z,-3.40
2023-03-01T04:17:21.530Z,-3.42
2023-03-01T04:19:55.641Z,-3.36
2023-03-01T04:22:30.585Z,-3.56
2023-03-01T04:25:07.233Z,-3.78
2023-03-01T04:27:40.037Z,-3.38
2023-03-01T04:30:13.759Z,-3.60
2023-03-01T04:32:46.646Z,-3.69
2023-03-01T04:35:21.643Z,-3.67
2023-03-01T04:37:54.398Z,-3.70
2023-03-01T04:40:27.634Z,-3.75
2023-03-01T04:43:00.750Z,-3.80
2023-03-01T04:45:35.846Z,-3.71
2023-03-01T04:48:08.798Z,-3.84
2023-03-01T04:50:43.299Z,-4.06
2023-03-01T04:53:16.243Z,-3.85
2023-03-01T04:55:49.013Z,-3.85
2023-03-01T04:58:21.775Z,-3.95
2023-03-01T05:00:56.632Z,-4.03
2023-03-01T05:03:29.875Z,-4.16
2023-03-01T05:06:04.176Z,-4.27
2023-03-01T05:08:38.974Z,-3.90
2023-03-01T05:11:12.794Z,-4.07
2023-03-01T05:13:45.573Z,-3.94
2023-03-01T05:16:18.953Z,-3.96
2023-03-01T05:18:52.489Z,-4.05
2023-03-01T05:21:27.461Z,-3.98
2023-03-01T05:24:00.521Z,-4.08
2023-03-01T05:26:33.966Z,-4.15
2023-03-01T05:29:06.873Z,-4.09
2023-03-01T05:31:40.586Z,-4.09
2023-03-01T05:34:13.880Z,-4.07
2023-03-01T05:36:48.097Z,-4.00
2023-03-01T05:39:23.423Z,-3.91
2023-03-01T05:41:57.860Z,-4.16
2023-03-01T05:44:32.091Z,-4.12
2023-03-01T05:47:05.161Z,-4.58
2023-03-01T05:49:39.740Z,-4.71
2023-03-01T05:52:14.216Z,-4.93
2023-03-01T05:54:47.242Z,-4.48
2023-03-01T05:57:20.089Z,-4.13
2023-03-01T05:59:52.913Z,-3.83
2023-03-01T06:02:25.916Z,-4.01
2023-03-01T06:04:59.226Z,-3.93
2023-03-01T06:07:33.558Z,-4.03
2023-03-01T06:10:08.324Z,-4.00
2023-03-01T06:12:43.237Z,-3.93
2023-03-01T06:15:18.243Z,-3.86
2023-03-01T06:17:51.791Z,-3.77
2023-03-01T06:20:26.563Z,-3.77
2023-03-01T06:23:01.795Z,-4.06
2023-03-01T06:25:34.681Z,-4.04
2023-03-01T06:28:07.840Z,-4.12
2023-03-01T06:30:40.706Z,-3.88
2023-03-01T06:33:14.161Z,-4.10
2023-03-01T06:35:47.025Z,-3.85
2023-03-01T06:38:21.419Z,-4.05
2023-03-01T06:40:55.809Z,-3.66
2023-03-01T06:43:29.052Z,-3.68
2023-03-01T06:46:02.361Z,-3.69
2023-03-01T06:48:35.678Z,-3.65
2023-03-01T06:51:08.695Z,-3.51
2023-03-01T06:53:43.322Z,-3.67
2023-03-01T06:56:16.236Z,-3.75
2023-03-01T06:58:49.513Z,-3.91
2023-03-01T07:01:22.601Z,-3.79
2023-03-01T07:03:55.831Z,-3.51
2023-03-01T07:06:30.976Z,-3.56
2023-03-01T07:09:05.555Z,-3.13
2023-03-01T07:11:38.760Z,-3.01
2023-03-01T07:14:11.685Z,-2.82
2023-03-01T07:16:44.598Z,-2.59
2023-03-01T07:19:17.587Z,-2.31
2023-03-01T07:21:50.735Z,-2.12
2023-03-01T07:24:25.116Z,-1.94
2023-03-01T07:26:57.947Z,-1.64
2023-03-01T07:29:31.205Z,-1.67
2023-03-01T07:32:04.477Z,-1.57
2023-03-01T07:34:37.469Z,-1.37
2023-03-01T07:37:10.395Z,-1.30
2023-03-01T07:39:44.526Z,-1.01
2023-03-01T07:42:17.322Z,-0.98
2023-03-01T07:44:50.171Z,-0.86
2023-03-01T07:47:22.923Z,-0.58
2023-03-01T07:49:55.670Z,-0.29
2023-03-01T07:52:28.813Z,-0.38
2023-03-01T07:55:03.025Z,-0.18
2023-03-01T07:57:35.889Z,0.06
2023-03-01T08:00:12.437Z,0.18
2023-03-01T08:02:45.329Z,0.39
2023-03-01T08:05:18.803Z,0.68
2023-03-01T08:07:51.727Z,0.83
2023-03-01T08:10:26.004Z,0.96
2023-03-01T08:12:59.209Z,1.37
2023-03-01T08:15:31.987Z,1.74
2023-03-01T08:18:04.888Z,2.18
2023-03-01T08:20:37.682Z,2.20
2023-03-01T08:23:10.610Z,2.41
2023-03-01T08:25:44.930Z,2.53
2023-03-01T08:28:17.728Z,2.73
2023-03-01T08:30:50.556Z,2.97
2023-03-01T08:33:24.329Z,3.09
2023-03-01T08:36:05.161Z,3.13
2023-03-01T08:38:37.900Z,3.13
2023-03-01T08:41:12.154Z,3.34
2023-03-01T08:43:47.170Z,3.47
2023-03-01T08:46:19.934Z,3.43
2023-03-01T08:48:52.685Z,3.80
2023-03-01T08:51:27.277Z,3.71
2023-03-01T08:54:00.101Z,3.71
2023-03-01T08:56:35.208Z,4.08
2023-03-01T08:59:08.530Z,4.31
2023-03-01T09:01:44.265Z,4.22
2023-03-01T09:04:18.120Z,4.36
2023-03-01T09:06:51.149Z,4.35
2023-03-01T09:09:24.278Z,4.67
2023-03-01T09:11:58.884Z,4.77
2023-03-01T09:14:31.772Z,4.56
2023-03-01T09:17:04.639Z,5.04
2023-03-01T09:19:37.500Z,5.07
2023-03-01T09:22:10.218Z,5.19
2023-03-01T09:24:43.051Z,4.46
2023-03-01T09:27:19.698Z,5.53
2023-03-01T09:29:52.624Z,5.35
2023-03-01T09:32:25.456Z,5.33
2023-03-01T09:35:05.838Z,5.49
2023-03-01T09:37:39.422Z,4.99
2023-03-01T09:40:17.290Z,5.99
2023-03-01T09:42:57.948Z,6.45
2023-03-01T09:45:37.058Z,5.95
2023-03-01T09:48:18.197Z,6.42
2023-03-01T09:50:51.322Z,6.78
2023-03-01T09:53:28.628Z,5.94
2023-03-01T09:56:07.040Z,5.92
2023-03-01T09:58:53.587Z,6.11
2023-03-01T10:01:35.683Z,6.05
2023-03-01T10:04:28.269Z,5.97
2023-03-01T10:07:20.173Z,6.39
2023-03-01T10:09:53.024Z,6.30
2023-03-01T10:12:32.919Z,6.55
2023-03-01T10:15:13.574Z,6.48
2023-03-01T10:17:52.323Z,6.66
2023-03-01T10:20:27.410Z,6.54
2023-03-01T10:23:00.308Z,6.46
2023-03-01T10:25:46.881Z,6.54
2023-03-01T10:28:26.670Z,5.64
2023-03-01T10:31:01.903Z,7.01
2023-03-01T10:33:40.601Z,7.18
2023-03-01T10:36:13.585Z,7.95
2023-03-01T10:38:53.316Z,7.30
2023-03-01T10:41:30.680Z,7.29
2023-03-01T10:44:03.832Z,7.84
2023-03-01T10:46:39.535Z,8.40
2023-03-01T10:49:17.228Z,7.98
2023-03-01T10:51:51.745Z,8.53
2023-03-01T10:54:29.047Z,7.58
2023-03-01T10:57:05.184Z,8.34
2023-03-01T10:59:40.276Z,8.38
2023-03-01T11:02:25.699Z,8.56
2023-03-01T11:05:00.954Z,9.00
2023-03-01T11:07:49.265Z,8.86
2023-03-01T11:10:25.607Z,8.44
2023-03-01T11:13:09.386Z,8.68
2023-03-01T11:15:42.606Z,8.05
2023-03-01T11:18:40.551Z,8.85
2023-03-01T11:21:18.242Z,9.18
2023-03-01T11:23:51.546Z,8.55
2023-03-01T11:26:25.439Z,9.08
2023-03-01T11:29:04.354Z,9.31
2023-03-01T11:31:40.448Z,9.36
2023-03-01T11:34:25.892Z,9.66
2023-03-01T11:37:03.734Z,9.96
2023-03-01T11:39:43.046Z,10.58
2023-03-01T11:42:21.835Z,10.21
2023-03-01T11:44:58.144Z,10.11
2023-03-01T11:47:45.163Z,10.07
2023-03-01T11:50:28.821Z,9.66
2023-03-01T11:53:23.931Z,9.62
2023-03-01T11:56:07.502Z,9.44
2023-03-01T11:59:25.348Z,9.74
2023-03-01T12:02:18.585Z,10.42
2023-03-01T12:05:15.883Z,10.34
2023-03-01T12:07:58.072Z,9.92
2023-03-01T12:10:35.829Z,9.87
2023-03-01T12:13:31.735Z,10.16
2023-03-01T12:16:38.374Z,10.28
2023-03-01T12:19:39.454Z,10.47
2023-03-01T12:22:28.047Z,10.05
2023-03-01T12:25:22.990Z,10.02
2023-03-01T12:28:14.141Z,10.18
2023-03-01T12:31:15.195Z,10.26
2023-03-01T12:33:54.788Z,10.67
2023-03-01T12:36:44.353Z,10.55
2023-03-01T12:39:33.310Z,10.53
2023-03-01T12:42:19.822Z,10.90
2023-03-01T12:45:14.695Z,10.11
2023-03-01T12:48:02.312Z,10.06
2023-03-01T12:50:42.181Z,10.69
2023-03-01T12:53:25.094Z,10.35
2023-03-01T12:56:02.666Z,10.71
2023-03-01T12:58:49.974Z,10.83
2023-03-01T13:01:33.863Z,10.53
2023-03-01T13:04:30.333Z,10.40
2023-03-01T13:07:28.304Z,10.50
2023-03-01T13:10:20.559Z,10.19
2023-03-01T13:13:02.878Z,10.61
2023-03-01T13:15:38.715Z,10.72
2023-03-01T13:18:31.800Z,10.94
2023-03-01T13:21:06.639Z,9.84
2023-03-01T13:23:41.175Z,10.24
2023-03-01T13:26:17.336Z,10.58
2023-03-01T13:28:56.978Z,10.86
2023-03-01T13:32:09.278Z,10.30
2023-03-01T13:34:47.203Z,10.97
2023-03-01T13:37:35.125Z,11.29
2023-03-01T13:40:41.747Z,11.27
2023-03-01T13:43:34.090Z,10.85
2023-03-01T13:46:13.579Z,11.52
2023-03-01T13:48:51.793Z,10.44
2023-03-01T13:51:29.908Z,11.08
2023-03-01T13:54:02.865Z,11.60
2023-03-01T13:56:38.858Z,10.86
2023-03-01T13:59:17.315Z,11.09
2023-03-01T14:01:54.857Z,11.17
2023-03-01T14:04:29.784Z,10.84
2023-03-01T14:07:19.727Z,10.64
2023-03-01T14:09:58.049Z,11.06
2023-03-01T14:12:47.045Z,11.23
2023-03-01T14:15:24.637Z,11.14
2023-03-01T14:18:06.215Z,11.55
2023-03-01T14:20:43.363Z,11.71
2023-03-01T14:23:21.542Z,11.38
2023-03-01T14:25:57.077Z,11.47
2023-03-01T14:28:34.593Z,11.61
2023-03-01T14:31:38.434Z,10.99
2023-03-01T14:34:21.662Z,10.98
2023-03-01T14:36:54.450Z,10.87
2023-03-01T14:39:28.896Z,10.67
2023-03-01T14:42:14.118Z,10.66
2023-03-01T14:44:51.079Z,10.97
2023-03-01T14:47:29.616Z,10.65
2023-03-01T14:50:06.839Z,11.10
2023-03-01T14:52:42.182Z,10.86
2023-03-01T14:55:20.320Z,10.49
2023-03-01T14:57:53.748Z,10.46
2023-03-01T15:00:29.318Z,10.62
2023-03-01T15:03:10.874Z,10.60
2023-03-01T15:05:45.455Z,10.21
2023-03-01T15:08:22.212Z,10.46
2023-03-01T15:11:03.781Z,10.14
2023-03-01T15:13:37.847Z,10.30
2023-03-01T15:16:14.427Z,10.19
2023-03-01T15:18:50.048Z,10.59
2023-03-01T15:21:26.497Z,10.47
2023-03-01T15:24:04.746Z,10.12
2023-03-01T15:26:42.377Z,10.13
2023-03-01T15:29:20.549Z,10.14
2023-03-01T15:31:58.143Z,10.01
2023-03-01T15:34:33.263Z,10.32
2023-03-01T15:37:09.666Z,10.02
2023-03-01T15:39:45.188Z,10.01
2023-03-01T15:42:39.798Z,9.92
2023-03-01T15:45:23.015Z,9.56
2023-03-01T15:47:58.800Z,9.66
2023-03-01T15:50:34.588Z,9.54
2023-03-01T15:53:12.077Z,8.96
2023-03-01T15:55:46.489Z,9.50
2023-03-01T15:58:22.848Z,9.29
2023-03-01T16:01:01.189Z,9.29
2023-03-01T16:03:34.666Z,9.27
2023-03-01T16:06:07.959Z,9.03
2023-03-01T16:08:41.489Z,8.75
2023-03-01T16:11:18.257Z,8.87
2023-03-01T16:13:52.868Z,8.66
2023-03-01T16:16:26.088Z,8.48
2023-03-01T16:18:58.960Z,8.59
2023-03-01T16:21:32.454Z,8.13
2023-03-01T16:24:06.208Z,8.22
2023-03-01T16:26:39.906Z,8.20
2023-03-01T16:29:14.221Z,8.02
2023-03-01T16:31:48.027Z,8.25
2023-03-01T16:34:22.981Z,8.16
2023-03-01T16:36:55.793Z,8.10
2023-03-01T16:39:29.002Z,8.22
2023-03-01T16:42:02.214Z,7.90
2023-03-01T16:44:36.535Z,7.75
2023-03-01T16:47:09.808Z,7.75
2023-03-01T16:49:42.741Z,7.83
2023-03-01T16:52:15.694Z,7.43
2023-03-01T16:54:48.836Z,7.45
2023-03-01T16:57:21.880Z,7.46
2023-03-01T16:59:56.303Z,7.46
2023-03-01T17:02:29.600Z,7.20
2023-03-01T17:05:02.971Z,6.80
2023-03-01T17:07:36.784Z,6.45
2023-03-01T17:10:12.214Z,6.68
2023-03-01T17:12:44.937Z,6.63
2023-03-01T17:15:19.383Z,6.47
2023-03-01T17:17:52.308Z,6.45
2023-03-01T17:20:25.140Z,6.40
2023-03-01T17:22:58.709Z,6.11
2023-03-01T17:25:31.857Z,6.08
2023-03-01T17:28:04.754Z,5.97
2023-03-01T17:30:38.999Z,5.95
2023-03-01T17:33:12.401Z,5.85
2023-03-01T17:35:47.274Z,5.86
2023-03-01T17:38:20.434Z,5.82
2023-03-01T17:40:53.372Z,5.53
2023-03-01T17:43:26.155Z,5.50
2023-03-01T17:46:00.503Z,5.49
2023-03-01T17:48:33.422Z,5.51
2023-03-01T17:51:11.281Z,5.62
2023-03-01T17:53:52.650Z,5.28
2023-03-01T17:56:25.526Z,5.23
2023-03-01T17:58:58.429Z,5.20
2023-03-01T18:01:33.807Z,5.27
2023-03-01T18:04:07.253Z,5.13
2023-03-01T18:06:41.272Z,5.15
2023-03-01T18:09:14.893Z,4.84
2023-03-01T18:11:47.980Z,5.06
2023-03-01T18:14:21.205Z,4.89
2023-03-01T18:16:55.533Z,4.98
2023-03-01T18:19:28.819Z,4.70
2023-03-01T18:22:01.692Z,4.57
2023-03-01T18:24:34.488Z,4.56
2023-03-01T18:27:07.379Z,4.43
2023-03-01T18:29:40.266Z,4.50
2023-03-01T18:32:14.466Z,4.45
2023-03-01T18:34:48.422Z,4.38
2023-03-01T18:37:21.164Z,4.28
2023-03-01T18:39:54.391Z,4.29
2023-03-01T18:42:27.323Z,4.47
2023-03-01T18:45:00.717Z,4.21
2023-03-01T18:47:35.232Z,4.09
2023-03-01T18:50:09.197Z,4.02
2023-03-01T18:52:42.024Z,3.85
2023-03-01T18:55:14.871Z,3.79
2023-03-01T18:57:48.031Z,3.81
2023-03-01T19:00:22.179Z,3.84
2023-03-01T19:02:57.565Z,3.84
2023-03-01T19:05:30.775Z,3.74
2023-03-01T19:08:03.908Z,3.50
2023-03-01T19:10:37.186Z,3.45
2023-03-01T19:13:11.167Z,3.45
2023-03-01T19:15:44.744Z,3.36
2023-03-01T19:18:19.878Z,3.36
2023-03-01T19:21:03.829Z,3.31
2023-03-01T19:23:38.482Z,3.43
2023-03-01T19:26:13.537Z,3.44
2023-03-01T19:28:46.811Z,3.25
2023-03-01T19:31:23.481Z,3.13
2023-03-01T19:34:10.361Z,3.07
2023-03-01T19:36:45.405Z,3.14
2023-03-01T19:39:18.547Z,3.17
2023-03-01T19:41:52.058Z,3.10
2023-03-01T19:44:25.151Z,2.92
2023-03-01T19:46:58.735Z,3.19
2023-03-01T19:49:33.208Z,2.78
2023-03-01T19:52:06.243Z,3.10
2023-03-01T19:54:39.100Z,3.10
2023-03-01T19:57:14.348Z,2.72
2023-03-01T19:59:47.408Z,2.81
2023-03-01T20:02:20.543Z,2.65
2023-03-01T20:04:54.779Z,2.58
2023-03-01T20:07:27.610Z,2.65
2023-03-01T20:10:00.444Z,2.49
2023-03-01T20:12:33.383Z,2.68
2023-03-01T20:15:07.362Z,2.54
2023-03-01T20:17:40.390Z,2.63
2023-03-01T20:20:16.072Z,2.72
2023-03-01T20:22:48.926Z,2.58
2023-03-01T20:25:21.960Z,2.52
2023-03-01T20:27:54.803Z,2.47
2023-03-01T20:30:28.272Z,2.34
2023-03-01T20:33:01.088Z,2.24
2023-03-01T20:35:36.167Z,2.36
2023-03-01T20:38:09.146Z,2.22
2023-03-01T20:40:42.153Z,2.10
2023-03-01T20:43:14.938Z,2.41
2023-03-01T20:45:47.735Z,2.19
2023-03-01T20:48:20.584Z,2.16
2023-03-01T20:50:56.756Z,2.39
2023-03-01T20:53:29.625Z,2.04
2023-03-01T20:56:03.609Z,2.16
2023-03-01T20:58:36.566Z,2.22
2023-03-01T21:01:11.837Z,2.41
2023-03-01T21:03:44.808Z,1.99
2023-03-01T21:06:19.055Z,2.16
2023-03-01T21:08:52.860Z,2.20
2023-03-01T21:11:26.085Z,2.11
2023-03-01T21:13:59.292Z,2.07
2023-03-01T21:16:33.421Z,1.98
2023-03-01T21:19:06.539Z,1.99
2023-03-01T21:21:40.810Z,1.85
2023-03-01T21:24:13.983Z,1.79
2023-03-01T21:26:47.010Z,1.79
2023-03-01T21:29:19.878Z,1.95
2023-03-01T21:31:52.894Z,1.92
2023-03-01T21:34:25.865Z,1.72
2023-03-01T21:37:01.522Z,1.81
2023-03-01T21:39:34.888Z,1.71
2023-03-01T21:42:07.871Z,1.80
2023-03-01T21:44:40.668Z,1.51
2023-03-01T21:47:13.466Z,1.47
2023-03-01T21:49:46.410Z,1.28
2023-03-01T21:52:20.717Z,1.32
2023-03-01T21:54:55.337Z,1.09
2023-03-01T21:57:28.618Z,1.27
2023-03-01T22:00:01.549Z,1.02
2023-03-01T22:02:34.680Z,1.44
2023-03-01T22:05:08.775Z,1.39
2023-03-01T22:07:43.218Z,1.26
2023-03-01T22:10:16.198Z,1.30
2023-03-01T22:12:50.840Z,1.20
2023-03-01T22:15:25.226Z,1.33
2023-03-01T22:17:58.821Z,1.24
2023-03-01T22:20:31.630Z,1.43
2023-03-01T22:23:05.914Z,1.13
2023-03-01T22:25:43.234Z,1.04
2023-03-01T22:28:17.242Z,1.20
2023-03-01T22:30:50.029Z,1.01
2023-03-01T22:33:23.062Z,1.13
2023-03-01T22:35:56.468Z,1.11
2023-03-01T22:38:30.917Z,1.10
2023-03-01T22:41:05.668Z,1.11
2023-03-01T22:43:39.526Z,1.07
2023-03-01T22:46:16.051Z,1.27
2023-03-01T22:48:52.566Z,0.96
2023-03-01T22:51:28.598Z,1.05
2023-03-01T22:54:06.655Z,0.96
2023-03-01T22:56:40.250Z,1.03
2023-03-01T22:59:15.616Z,0.96
2023-03-01T23:01:48.635Z,0.95
2023-03-01T23:04:23.020Z,0.75
2023-03-01T23:06:55.925Z,1.04
2023-03-01T23:09:32.688Z,0.92
2023-03-01T23:12:09.244Z,0.71
2023-03-01T23:14:42.497Z,0.62
2023-03-01T23:17:16.056Z,0.59
2023-03-01T23:19:51.627Z,0.63
2023-03-01T23:22:25.337Z,0.76
2023-03-01T23:24:59.673Z,0.84
2023-03-01T23:27:32.603Z,0.90
2023-03-01T23:30:06.448Z,0.84
2023-03-01T23:32:40.848Z,1.04
2023-03-01T23:35:14.285Z,0.98
2023-03-01T23:37:47.114Z,0.72
2023-03-01T23:40:21.729Z,0.77
2023-03-01T23:42:54.544Z,0.98
2023-03-01T23:45:27.367Z,1.01
2023-03-01T23:48:00.612Z,0.86
2023-03-01T23:50:41.678Z,0.94
2023-03-01T23:53:17.153Z,0.82
2023-03-01T23:55:55.411Z,0.91
2023-03-01T23:58:29.410Z,1.09
